createdAt,value
2018-11-02T00:00:44.730Z,48.60
2018-11-02T00:01:44.732Z,35.10
2018-11-02T00:02:44.718Z,57.50
2018-11-02T00:03:44.972Z,47.00
2018-11-02T00:04:44.697Z,44.40
2018-11-02T00:05:44.689Z,49.70
2018-11-02T00:06:44.689Z,56.40
2018-11-02T00:07:44.669Z,54.30
2018-11-02T00:08:44.693Z,49.60
2018-11-02T00:09:44.673Z,46.60
2018-11-02T00:10:44.649Z,45.20
2018-11-02T00:11:44.632Z,43.80
2018-11-02T00:12:44.631Z,44.10
2018-11-02T00:13:44.618Z,38.70
2018-11-02T00:14:44.637Z,43.40
2018-11-02T00:15:44.637Z,42.20
2018-11-02T00:16:44.668Z,39.80
2018-11-02T00:17:44.604Z,44.60
2018-11-02T00:18:44.611Z,42.10
2018-11-02T00:19:44.602Z,35.80
2018-11-02T00:20:44.587Z,31.20
2018-11-02T00:21:44.599Z,35.20
2018-11-02T00:22:44.561Z,36.50
2018-11-02T00:23:44.628Z,44.20
2018-11-02T00:24:44.733Z,38.20
2018-11-02T00:25:44.577Z,42.20
2018-11-02T00:26:44.573Z,37.60
2018-11-02T00:27:44.533Z,39.50
2018-11-02T00:28:44.541Z,39.40
2018-11-02T00:29:44.627Z,37.80
2018-11-02T00:30:44.503Z,36.30
2018-11-02T00:31:44.573Z,37.30
2018-11-02T00:32:44.540Z,39.50
2018-11-02T00:33:44.542Z,40.40
2018-11-02T00:34:44.792Z,47.20
2018-11-02T00:35:44.527Z,49.30
2018-11-02T00:36:44.492Z,41.00
2018-11-02T00:37:44.484Z,40.80
2018-11-02T00:38:44.481Z,32.50
2018-11-02T00:39:44.458Z,36.80
2018-11-02T00:40:44.762Z,35.90
2018-11-02T00:41:44.471Z,37.40
2018-11-02T00:42:44.460Z,42.50
2018-11-02T00:43:44.441Z,35.50
2018-11-02T00:44:44.435Z,40.00
2018-11-02T00:45:44.505Z,40.50
2018-11-02T00:46:44.400Z,38.20
2018-11-02T00:47:44.401Z,35.10
2018-11-02T00:48:44.404Z,40.40
2018-11-02T00:49:44.396Z,45.30
2018-11-02T00:50:44.677Z,41.00
2018-11-02T00:51:44.370Z,43.20
2018-11-02T00:52:44.364Z,39.20
2018-11-02T00:53:44.410Z,41.90
2018-11-02T00:54:44.351Z,36.90
2018-11-02T00:55:44.482Z,39.90
2018-11-02T00:56:44.389Z,33.90
2018-11-02T00:57:44.316Z,43.30
2018-11-02T00:58:44.316Z,42.00
2018-11-02T00:59:44.323Z,48.90
2018-11-02T01:00:44.316Z,42.50
2018-11-02T01:01:44.298Z,39.20
2018-11-02T01:02:44.284Z,37.90
2018-11-02T01:03:44.283Z,41.40
2018-11-02T01:04:44.896Z,44.30
2018-11-02T01:05:44.290Z,44.90
2018-11-02T01:06:44.261Z,41.70
2018-11-02T01:07:44.267Z,42.00
2018-11-02T01:08:44.256Z,36.20
2018-11-02T01:09:44.236Z,36.70
2018-11-02T01:10:44.226Z,47.10
2018-11-02T01:11:44.312Z,47.90
2018-11-02T01:12:44.237Z,39.80
2018-11-02T01:13:44.206Z,39.10
2018-11-02T01:14:44.224Z,48.80
2018-11-02T01:15:44.239Z,45.00
2018-11-02T01:16:44.267Z,46.10
2018-11-02T01:17:44.242Z,40.30
2018-11-02T01:18:44.182Z,42.10
2018-11-02T01:19:44.154Z,50.20
2018-11-02T01:20:44.168Z,44.10
2018-11-02T01:21:44.175Z,46.20
2018-11-02T01:22:44.137Z,48.00
2018-11-02T01:23:44.142Z,46.20
2018-11-02T01:24:44.134Z,49.10
2018-11-02T01:25:44.127Z,49.00
2018-11-02T01:26:44.114Z,40.20
2018-11-02T01:27:44.106Z,43.90
2018-11-02T01:28:44.104Z,52.70
2018-11-02T01:29:44.078Z,51.00
2018-11-02T01:30:44.081Z,41.70
2018-11-02T01:31:44.115Z,45.30
2018-11-02T01:32:44.123Z,45.90
2018-11-02T01:33:44.052Z,47.80
2018-11-02T01:34:44.051Z,46.60
2018-11-02T01:35:44.072Z,44.00
2018-11-02T01:36:44.029Z,47.50
2018-11-02T01:37:44.039Z,46.90
2018-11-02T01:38:44.042Z,48.90
2018-11-02T01:39:44.020Z,48.70
2018-11-02T01:40:44.017Z,50.20
2018-11-02T01:41:44.005Z,44.80
2018-11-02T01:42:44.335Z,55.50
2018-11-02T01:43:43.983Z,40.40
2018-11-02T01:44:43.968Z,42.70
2018-11-02T01:45:43.984Z,48.00
2018-11-02T01:46:43.966Z,39.80
2018-11-02T01:47:43.955Z,45.30
2018-11-02T01:48:43.949Z,43.60
2018-11-02T01:49:43.923Z,58.90
2018-11-02T01:50:43.927Z,46.10
2018-11-02T01:51:43.914Z,55.80
2018-11-02T01:52:43.940Z,59.20
2018-11-02T01:53:43.924Z,60.50
2018-11-02T01:54:43.912Z,54.90
2018-11-02T01:55:43.888Z,63.20
2018-11-02T01:56:43.878Z,70.10
2018-11-02T01:57:43.890Z,81.50
2018-11-02T01:58:44.015Z,77.00
2018-11-02T01:59:43.856Z,84.50
2018-11-02T02:00:43.845Z,75.70
2018-11-02T02:01:43.843Z,73.70
2018-11-02T02:02:43.826Z,71.80
2018-11-02T02:03:43.832Z,84.50
2018-11-02T02:04:43.840Z,78.10
2018-11-02T02:05:43.826Z,87.40
2018-11-02T02:06:43.835Z,89.10
2018-11-02T02:07:43.820Z,84.20
2018-11-02T02:08:43.815Z,86.10
2018-11-02T02:09:43.825Z,86.90
2018-11-02T02:10:43.765Z,81.70
2018-11-02T02:11:43.781Z,85.20
2018-11-02T02:12:43.759Z,95.70
2018-11-02T02:13:43.750Z,82.80
2018-11-02T02:14:43.796Z,76.60
2018-11-02T02:15:43.730Z,85.00
2018-11-02T02:16:43.725Z,89.60
2018-11-02T02:17:43.701Z,95.70
2018-11-02T02:18:43.727Z,102.30
2018-11-02T02:19:43.707Z,85.00
2018-11-02T02:20:43.697Z,84.80
2018-11-02T02:21:43.731Z,91.00
2018-11-02T02:22:43.705Z,91.90
2018-11-02T02:23:43.684Z,84.40
2018-11-02T02:24:44.057Z,97.90
2018-11-02T02:25:43.643Z,98.80
2018-11-02T02:26:43.661Z,100.80
2018-11-02T02:27:43.630Z,81.60
2018-11-02T02:28:43.649Z,102.70
2018-11-02T02:29:43.621Z,86.40
2018-11-02T02:30:43.958Z,94.20
2018-11-02T02:31:43.596Z,89.10
2018-11-02T02:32:43.628Z,83.70
2018-11-02T02:33:43.596Z,88.50
2018-11-02T02:34:43.583Z,83.90
2018-11-02T02:35:43.584Z,82.90
2018-11-02T02:36:43.994Z,93.60
2018-11-02T02:37:43.570Z,97.80
2018-11-02T02:38:43.531Z,108.60
2018-11-02T02:39:43.575Z,91.40
2018-11-02T02:40:43.542Z,94.80
2018-11-02T02:41:43.524Z,104.00
2018-11-02T02:42:43.815Z,106.60
2018-11-02T02:43:43.499Z,83.00
2018-11-02T02:44:43.552Z,92.30
2018-11-02T02:45:43.497Z,94.60
2018-11-02T02:46:43.475Z,93.30
2018-11-02T02:47:43.562Z,93.10
2018-11-02T02:48:43.505Z,93.80
2018-11-02T02:49:43.457Z,93.10
2018-11-02T02:50:43.441Z,100.40
2018-11-02T02:51:43.429Z,87.00
2018-11-02T02:52:43.487Z,87.10
2018-11-02T02:53:43.535Z,97.50
2018-11-02T02:54:43.405Z,92.80
2018-11-02T02:55:43.405Z,93.80
2018-11-02T02:56:43.401Z,101.60
2018-11-02T02:57:43.390Z,93.70
2018-11-02T02:58:43.402Z,89.50
2018-11-02T02:59:43.386Z,93.00
2018-11-02T03:00:43.369Z,90.80
2018-11-02T03:01:43.370Z,87.90
2018-11-02T03:02:43.349Z,104.10
2018-11-02T03:03:43.350Z,119.30
2018-11-02T03:04:43.372Z,108.20
2018-11-02T03:05:43.328Z,113.80
2018-11-02T03:06:43.332Z,99.50
2018-11-02T03:07:43.304Z,90.80
2018-11-02T03:08:43.288Z,88.90
2018-11-02T03:09:43.302Z,93.90
2018-11-02T03:10:43.444Z,98.90
2018-11-02T03:11:43.292Z,109.70
2018-11-02T03:12:43.253Z,99.50
2018-11-02T03:13:43.275Z,89.40
2018-11-02T03:14:43.538Z,85.90
2018-11-02T03:15:43.229Z,88.70
2018-11-02T03:16:43.244Z,90.90
2018-11-02T03:17:43.224Z,102.90
2018-11-02T03:18:43.416Z,98.10
2018-11-02T03:19:43.204Z,102.80
2018-11-02T03:20:43.515Z,96.70
2018-11-02T03:21:43.205Z,98.80
2018-11-02T03:22:43.371Z,101.40
2018-11-02T03:23:43.181Z,90.20
2018-11-02T03:24:43.169Z,89.10
2018-11-02T03:25:43.168Z,91.30
2018-11-02T03:26:43.146Z,98.50
2018-11-02T03:27:43.148Z,90.60
2018-11-02T03:28:43.121Z,106.00
2018-11-02T03:29:43.131Z,93.50
2018-11-02T03:30:43.150Z,101.50
2018-11-02T03:31:43.100Z,84.50
2018-11-02T03:32:43.095Z,88.10
2018-11-02T03:33:43.095Z,91.00
2018-11-02T03:34:43.096Z,97.30
2018-11-02T03:35:43.077Z,87.50
2018-11-02T03:36:43.065Z,101.90
2018-11-02T03:37:43.065Z,95.20
2018-11-02T03:38:43.054Z,105.80
2018-11-02T03:39:43.054Z,108.30
2018-11-02T03:40:43.021Z,109.10
2018-11-02T03:41:43.032Z,81.80
2018-11-02T03:42:43.012Z,87.40
2018-11-02T03:43:43.009Z,97.40
2018-11-02T03:44:42.999Z,98.70
2018-11-02T03:45:42.974Z,113.70
2018-11-02T03:46:43.259Z,98.70
2018-11-02T03:47:43.011Z,101.30
2018-11-02T03:48:42.974Z,108.50
2018-11-02T03:49:42.968Z,89.20
2018-11-02T03:50:42.985Z,97.70
2018-11-02T03:51:43.035Z,108.30
2018-11-02T03:52:42.911Z,115.40
2018-11-02T03:53:42.964Z,95.90
2018-11-02T03:54:42.938Z,99.40
2018-11-02T03:55:43.109Z,104.70
2018-11-02T03:56:43.002Z,109.10
2018-11-02T03:57:42.869Z,88.10
2018-11-02T03:58:42.880Z,92.70
2018-11-02T03:59:42.880Z,79.90
2018-11-02T04:00:42.899Z,98.20
2018-11-02T04:01:42.833Z,105.20
2018-11-02T04:02:42.835Z,114.00
2018-11-02T04:03:42.826Z,121.20
2018-11-02T04:04:42.825Z,113.20
2018-11-02T04:05:42.852Z,99.40
2018-11-02T04:06:42.815Z,102.50
2018-11-02T04:07:42.929Z,84.10
2018-11-02T04:08:42.811Z,92.20
2018-11-02T04:09:42.807Z,95.80
2018-11-02T04:10:42.749Z,94.80
2018-11-02T04:11:42.820Z,93.10
2018-11-02T04:12:42.730Z,108.60
2018-11-02T04:13:42.995Z,97.30
2018-11-02T04:14:42.774Z,97.20
2018-11-02T04:15:42.768Z,77.80
2018-11-02T04:16:42.693Z,102.50
2018-11-02T04:17:42.700Z,90.50
2018-11-02T04:18:42.683Z,130.60
2018-11-02T04:19:42.787Z,124.50
2018-11-02T04:20:42.692Z,135.30
2018-11-02T04:21:42.683Z,119.10
2018-11-02T04:22:42.676Z,97.30
2018-11-02T04:23:42.631Z,116.30
2018-11-02T04:24:42.946Z,115.90
2018-11-02T04:25:42.619Z,110.70
2018-11-02T04:26:42.631Z,107.90
2018-11-02T04:27:42.604Z,136.20
2018-11-02T04:28:42.644Z,105.50
2018-11-02T04:29:42.596Z,96.40
2018-11-02T04:30:42.643Z,105.00
2018-11-02T04:31:42.583Z,104.70
2018-11-02T04:32:42.606Z,129.30
2018-11-02T04:33:42.576Z,114.10
2018-11-02T04:34:42.596Z,127.10
2018-11-02T04:35:42.586Z,120.60
2018-11-02T04:36:42.531Z,115.80
2018-11-02T04:37:42.512Z,132.30
2018-11-02T04:38:42.509Z,121.80
2018-11-02T04:39:42.515Z,102.90
2018-11-02T04:40:42.490Z,116.10
2018-11-02T04:41:42.511Z,94.00
2018-11-02T04:42:42.481Z,104.50
2018-11-02T04:43:42.482Z,118.50
2018-11-02T04:44:42.460Z,118.10
2018-11-02T04:45:42.429Z,118.20
2018-11-02T04:46:42.464Z,117.60
2018-11-02T04:47:42.436Z,115.40
2018-11-02T04:48:42.440Z,121.50
2018-11-02T04:49:42.438Z,109.90
2018-11-02T04:50:42.406Z,114.80
2018-11-02T04:51:42.438Z,111.80
2018-11-02T04:52:42.371Z,116.70
2018-11-02T04:53:42.371Z,119.30
2018-11-02T04:54:42.363Z,128.40
2018-11-02T04:55:42.632Z,131.60
2018-11-02T04:56:42.348Z,78.30
2018-11-02T04:57:42.340Z,104.30
2018-11-02T04:58:42.382Z,101.40
2018-11-02T04:59:42.330Z,127.30
2018-11-02T05:00:42.335Z,107.90
2018-11-02T05:01:42.624Z,119.10
2018-11-02T05:02:42.292Z,108.50
2018-11-02T05:03:42.310Z,124.20
2018-11-02T05:04:42.332Z,109.70
2018-11-02T05:05:42.331Z,129.40
2018-11-02T05:06:42.381Z,81.40
2018-11-02T05:07:42.244Z,98.60
2018-11-02T05:08:42.242Z,109.50
2018-11-02T05:09:42.319Z,138.00
2018-11-02T05:10:42.237Z,153.30
2018-11-02T05:11:42.245Z,124.50
2018-11-02T05:12:42.477Z,126.70
2018-11-02T05:13:42.202Z,109.10
2018-11-02T05:14:42.205Z,105.10
2018-11-02T05:15:42.239Z,124.50
2018-11-02T05:16:42.188Z,115.90
2018-11-02T05:17:42.281Z,122.60
2018-11-02T05:18:42.153Z,110.60
2018-11-02T05:19:42.146Z,116.00
2018-11-02T05:20:42.141Z,95.20
2018-11-02T05:21:42.124Z,107.10
2018-11-02T05:22:42.146Z,123.90
2018-11-02T05:23:42.109Z,132.60
2018-11-02T05:24:42.113Z,115.20
2018-11-02T05:25:42.098Z,116.40
2018-11-02T05:26:42.085Z,107.10
2018-11-02T05:27:42.122Z,113.70
2018-11-02T05:28:42.065Z,98.30
2018-11-02T05:29:42.062Z,100.80
2018-11-02T05:30:42.079Z,98.90
2018-11-02T05:31:42.021Z,112.50
2018-11-02T05:32:42.029Z,118.20
2018-11-02T05:33:42.115Z,111.10
2018-11-02T05:34:42.012Z,111.50
2018-11-02T05:35:42.011Z,129.00
2018-11-02T05:36:41.986Z,143.10
2018-11-02T05:37:41.973Z,104.10
2018-11-02T05:38:41.979Z,101.00
2018-11-02T05:39:41.983Z,131.40
2018-11-02T05:40:41.962Z,129.20
2018-11-02T05:41:41.949Z,126.30
2018-11-02T05:42:41.955Z,111.80
2018-11-02T05:43:41.927Z,111.30
2018-11-02T05:44:42.005Z,100.20
2018-11-02T05:45:41.906Z,112.20
2018-11-02T05:46:41.888Z,128.80
2018-11-02T05:47:41.909Z,84.50
2018-11-02T05:48:41.904Z,101.10
2018-11-02T05:49:41.879Z,128.70
2018-11-02T05:50:41.889Z,116.80
2018-11-02T05:51:41.871Z,104.80
2018-11-02T05:52:41.859Z,95.60
2018-11-02T05:53:41.850Z,104.10
2018-11-02T05:54:41.844Z,114.10
2018-11-02T05:55:41.848Z,130.80
2018-11-02T05:56:41.817Z,105.10
2018-11-02T05:57:41.843Z,127.70
2018-11-02T05:58:41.815Z,129.80
2018-11-02T05:59:41.783Z,136.00
2018-11-02T06:00:41.815Z,98.90
2018-11-02T06:01:41.876Z,115.40
2018-11-02T06:02:41.787Z,121.00
2018-11-02T06:03:41.771Z,118.20
2018-11-02T06:04:41.747Z,96.00
2018-11-02T06:05:41.752Z,132.10
2018-11-02T06:06:41.738Z,98.10
2018-11-02T06:07:41.795Z,86.50
2018-11-02T06:08:41.697Z,108.20
2018-11-02T06:09:41.696Z,99.30
2018-11-02T06:10:41.736Z,132.20
2018-11-02T06:11:41.712Z,100.70
2018-11-02T06:12:41.651Z,131.30
2018-11-02T06:13:41.709Z,109.40
2018-11-02T06:14:41.698Z,103.70
2018-11-02T06:15:41.656Z,132.40
2018-11-02T06:16:41.781Z,102.40
2018-11-02T06:17:41.637Z,114.30
2018-11-02T06:18:41.716Z,113.30
2018-11-02T06:19:41.628Z,109.70
2018-11-02T06:20:41.610Z,128.80
2018-11-02T06:21:41.599Z,142.60
2018-11-02T06:22:41.594Z,101.80
2018-11-02T06:23:41.552Z,127.90
2018-11-02T06:24:41.568Z,115.50
2018-11-02T06:25:41.574Z,100.10
2018-11-02T06:26:41.787Z,116.20
2018-11-02T06:27:41.574Z,102.00
2018-11-02T06:28:41.545Z,97.40
2018-11-02T06:29:41.524Z,113.50
2018-11-02T06:30:41.521Z,128.90
2018-11-02T06:31:41.594Z,106.00
2018-11-02T06:32:41.584Z,114.40
2018-11-02T06:33:41.481Z,126.80
2018-11-02T06:34:41.469Z,92.70
2018-11-02T06:35:41.519Z,97.30
2018-11-02T06:36:41.450Z,102.80
2018-11-02T06:37:41.463Z,115.20
2018-11-02T06:38:41.579Z,87.10
2018-11-02T06:39:41.569Z,116.90
2018-11-02T06:40:41.438Z,108.70
2018-11-02T06:41:41.412Z,91.70
2018-11-02T06:42:41.475Z,113.30
2018-11-02T06:43:41.421Z,117.20
2018-11-02T06:44:41.413Z,89.50
2018-11-02T06:45:41.372Z,119.80
2018-11-02T06:46:41.383Z,98.80
2018-11-02T06:47:41.409Z,100.00
2018-11-02T06:48:41.371Z,111.00
2018-11-02T06:49:41.342Z,91.90
2018-11-02T06:50:41.400Z,102.00
2018-11-02T06:51:41.329Z,84.60
2018-11-02T06:52:41.328Z,109.50
2018-11-02T06:53:41.320Z,90.40
2018-11-02T06:54:41.301Z,105.20
2018-11-02T06:55:41.274Z,85.80
2018-11-02T06:56:41.344Z,100.80
2018-11-02T06:57:41.279Z,119.10
2018-11-02T06:58:41.315Z,121.50
2018-11-02T06:59:41.450Z,131.20
2018-11-02T07:00:41.264Z,122.20
2018-11-02T07:01:41.239Z,104.20
2018-11-02T07:02:41.338Z,115.60
2018-11-02T07:03:41.283Z,105.30
2018-11-02T07:04:41.213Z,99.80
2018-11-02T07:05:41.217Z,83.80
2018-11-02T07:06:41.201Z,95.80
2018-11-02T07:07:41.361Z,98.30
2018-11-02T07:08:41.251Z,99.60
2018-11-02T07:09:41.224Z,88.10
2018-11-02T07:10:41.182Z,110.60
2018-11-02T07:11:41.207Z,99.70
2018-11-02T07:12:41.159Z,105.90
2018-11-02T07:13:41.143Z,122.60
2018-11-02T07:14:41.147Z,132.80
2018-11-02T07:15:41.161Z,101.90
2018-11-02T07:16:41.100Z,130.10
2018-11-02T07:17:41.121Z,108.10
2018-11-02T07:18:41.109Z,96.80
2018-11-02T07:19:41.098Z,96.50
2018-11-02T07:20:41.084Z,125.30
2018-11-02T07:21:41.073Z,111.50
2018-11-02T07:22:41.075Z,103.10
2018-11-02T07:23:41.082Z,91.00
2018-11-02T07:24:41.020Z,89.60
2018-11-02T07:25:41.083Z,79.30
2018-11-02T07:26:41.010Z,72.70
2018-11-02T07:27:41.041Z,87.50
2018-11-02T07:28:41.002Z,101.40
2018-11-02T07:29:41.095Z,98.50
2018-11-02T07:30:40.980Z,119.80
2018-11-02T07:31:40.991Z,104.30
2018-11-02T07:32:40.976Z,129.40
2018-11-02T07:33:40.962Z,140.40
2018-11-02T07:34:40.962Z,111.40
2018-11-02T07:35:41.024Z,113.80
2018-11-02T07:36:40.955Z,136.90
2018-11-02T07:37:40.920Z,101.30
2018-11-02T07:38:40.937Z,98.30
2018-11-02T07:39:40.909Z,105.90
2018-11-02T07:40:41.024Z,117.10
2018-11-02T07:41:40.883Z,131.10
2018-11-02T07:42:40.902Z,123.60
2018-11-02T07:43:40.893Z,110.40
2018-11-02T07:44:40.856Z,101.80
2018-11-02T07:45:40.879Z,101.80
2018-11-02T07:46:40.863Z,107.50
2018-11-02T07:47:40.903Z,121.50
2018-11-02T07:48:40.843Z,109.50
2018-11-02T07:49:40.858Z,103.50
2018-11-02T07:50:40.806Z,111.90
2018-11-02T07:51:41.070Z,113.00
2018-11-02T07:52:40.824Z,117.80
2018-11-02T07:53:40.798Z,129.30
2018-11-02T07:54:40.799Z,102.80
2018-11-02T07:55:40.777Z,120.20
2018-11-02T07:56:40.750Z,89.00
2018-11-02T07:57:40.917Z,112.30
2018-11-02T07:58:40.734Z,110.90
2018-11-02T07:59:40.730Z,113.80
2018-11-02T08:00:40.776Z,94.00
2018-11-02T08:01:40.745Z,122.00
2018-11-02T08:02:40.958Z,114.60
2018-11-02T08:03:40.724Z,114.00
2018-11-02T08:04:40.677Z,105.70
2018-11-02T08:05:40.682Z,119.70
2018-11-02T08:06:40.686Z,104.00
2018-11-02T08:07:40.677Z,101.30
2018-11-02T08:08:40.668Z,106.80
2018-11-02T08:09:40.641Z,89.00
2018-11-02T08:10:40.642Z,102.20
2018-11-02T08:11:40.728Z,131.00
2018-11-02T08:12:40.623Z,115.80
2018-11-02T08:13:40.626Z,96.30
2018-11-02T08:14:40.615Z,115.40
2018-11-02T08:15:40.642Z,101.20
2018-11-02T08:16:40.615Z,124.80
2018-11-02T08:17:40.659Z,117.00
2018-11-02T08:18:40.566Z,124.20
2018-11-02T08:19:40.667Z,129.90
2018-11-02T08:20:40.564Z,113.40
2018-11-02T08:21:40.543Z,120.30
2018-11-02T08:22:40.529Z,100.10
2018-11-02T08:23:40.529Z,96.70
2018-11-02T08:24:40.534Z,108.70
2018-11-02T08:25:40.513Z,114.60
2018-11-02T08:26:40.527Z,146.60
2018-11-02T08:27:40.502Z,104.00
2018-11-02T08:28:40.479Z,122.10
2018-11-02T08:29:40.494Z,107.10
2018-11-02T08:30:40.558Z,99.70
2018-11-02T08:31:40.479Z,118.30
2018-11-02T08:32:40.462Z,118.00
2018-11-02T08:33:40.471Z,111.00
2018-11-02T08:34:40.431Z,104.60
2018-11-02T08:35:40.428Z,106.40
2018-11-02T08:36:40.440Z,107.20
2018-11-02T08:37:40.439Z,109.10
2018-11-02T08:38:40.400Z,93.60
2018-11-02T08:39:40.393Z,92.60
2018-11-02T08:40:40.389Z,101.80
2018-11-02T08:41:40.379Z,110.80
2018-11-02T08:42:40.356Z,95.70
2018-11-02T08:43:40.341Z,106.80
2018-11-02T08:44:40.364Z,95.40
2018-11-02T08:45:40.328Z,125.30
2018-11-02T08:46:40.392Z,122.80
2018-11-02T08:47:40.319Z,121.00
2018-11-02T08:48:40.306Z,104.20
2018-11-02T08:49:40.300Z,126.30
2018-11-02T08:50:40.311Z,101.00
2018-11-02T08:51:40.286Z,98.10
2018-11-02T08:52:40.295Z,104.50
2018-11-02T08:53:40.322Z,120.30
2018-11-02T08:54:40.274Z,117.10
2018-11-02T08:55:40.275Z,103.90
2018-11-02T08:56:40.253Z,92.90
2018-11-02T08:57:40.569Z,99.70
2018-11-02T08:58:40.443Z,91.10
2018-11-02T08:59:40.278Z,106.00
2018-11-02T09:00:40.224Z,113.40
2018-11-02T09:01:40.203Z,100.90
2018-11-02T09:02:40.183Z,88.00
2018-11-02T09:03:40.227Z,85.70
2018-11-02T09:04:40.233Z,105.70
2018-11-02T09:05:40.152Z,99.40
2018-11-02T09:06:40.174Z,86.10
2018-11-02T09:07:40.142Z,98.70
2018-11-02T09:08:40.137Z,99.20
2018-11-02T09:09:40.133Z,100.00
2018-11-02T09:10:40.142Z,95.90
2018-11-02T09:11:40.123Z,113.90
2018-11-02T09:12:40.127Z,100.20
2018-11-02T09:13:40.112Z,105.60
2018-11-02T09:14:40.097Z,91.50
2018-11-02T09:15:40.076Z,90.30
2018-11-02T09:16:40.087Z,104.30
2018-11-02T09:17:40.060Z,95.10
2018-11-02T09:18:40.293Z,103.80
2018-11-02T09:19:40.069Z,115.10
2018-11-02T09:20:40.036Z,88.30
2018-11-02T09:21:40.045Z,111.90
2018-11-02T09:22:40.020Z,125.20
2018-11-02T09:23:40.022Z,108.40
2018-11-02T09:24:40.028Z,92.10
2018-11-02T09:25:40.001Z,113.20
2018-11-02T09:26:40.028Z,115.90
2018-11-02T09:27:40.057Z,115.30
2018-11-02T09:28:39.968Z,103.30
2018-11-02T09:29:39.945Z,104.80
2018-11-02T09:30:39.965Z,91.00
2018-11-02T09:31:39.953Z,90.90
2018-11-02T09:32:39.953Z,95.10
2018-11-02T09:33:39.944Z,91.70
2018-11-02T09:34:40.035Z,96.80
2018-11-02T09:35:39.906Z,93.50
2018-11-02T09:36:39.911Z,104.10
2018-11-02T09:37:39.895Z,94.20
2018-11-02T09:38:39.911Z,95.60
2018-11-02T09:39:39.889Z,87.00
2018-11-02T09:40:39.860Z,87.60
2018-11-02T09:41:39.865Z,90.10
2018-11-02T09:42:39.976Z,72.90
2018-11-02T09:43:39.827Z,96.10
2018-11-02T09:44:39.843Z,83.90
2018-11-02T09:45:40.072Z,102.20
2018-11-02T09:46:39.836Z,100.50
2018-11-02T09:47:39.817Z,85.50
2018-11-02T09:48:39.850Z,92.50
2018-11-02T09:49:39.804Z,96.20
2018-11-02T09:50:39.793Z,84.30
2018-11-02T09:51:39.933Z,79.90
2018-11-02T09:52:39.768Z,83.20
2018-11-02T09:53:39.753Z,81.70
2018-11-02T09:54:39.779Z,100.10
2018-11-02T09:55:39.758Z,89.60
2018-11-02T09:56:39.751Z,99.60
2018-11-02T09:57:39.806Z,82.10
2018-11-02T09:58:39.713Z,103.20
2018-11-02T09:59:39.697Z,81.00
2018-11-02T10:00:39.690Z,80.70
2018-11-02T10:01:39.720Z,88.90
2018-11-02T10:02:39.684Z,103.80
2018-11-02T10:03:39.701Z,91.40
2018-11-02T10:04:39.662Z,84.20
2018-11-02T10:05:39.655Z,80.50
2018-11-02T10:06:39.653Z,86.50
2018-11-02T10:07:39.738Z,88.60
2018-11-02T10:08:39.641Z,94.10
2018-11-02T10:09:39.629Z,71.30
2018-11-02T10:10:39.627Z,76.00
2018-11-02T10:11:39.614Z,97.30
2018-11-02T10:12:39.620Z,85.30
2018-11-02T10:13:39.694Z,83.40
2018-11-02T10:14:39.603Z,91.00
2018-11-02T10:15:39.582Z,80.80
2018-11-02T10:16:39.560Z,74.90
2018-11-02T10:17:39.553Z,82.10
2018-11-02T10:18:39.561Z,97.80
2018-11-02T10:19:39.586Z,71.90
2018-11-02T10:20:39.559Z,89.10
2018-11-02T10:21:39.542Z,81.00
2018-11-02T10:22:39.524Z,72.30
2018-11-02T10:23:39.595Z,76.70
2018-11-02T10:24:39.502Z,76.20
2018-11-02T10:25:39.512Z,72.80
2018-11-02T10:26:39.504Z,93.20
2018-11-02T10:27:39.539Z,65.50
2018-11-02T10:28:39.472Z,79.50
2018-11-02T10:29:39.486Z,64.90
2018-11-02T10:30:39.456Z,64.50
2018-11-02T10:31:39.481Z,67.30
2018-11-02T10:32:39.452Z,65.90
2018-11-02T10:33:39.435Z,63.30
2018-11-02T10:34:39.477Z,55.40
2018-11-02T10:35:39.535Z,59.30
2018-11-02T10:36:39.463Z,54.20
2018-11-02T10:37:39.388Z,60.30
2018-11-02T10:38:39.412Z,72.40
2018-11-02T10:39:39.425Z,66.80
2018-11-02T10:40:39.382Z,68.50
2018-11-02T10:41:39.381Z,69.20
2018-11-02T10:42:39.371Z,60.50
2018-11-02T10:43:39.354Z,58.90
2018-11-02T10:44:39.359Z,51.80
2018-11-02T10:45:39.343Z,56.80
2018-11-02T10:46:39.342Z,54.60
2018-11-02T10:47:39.345Z,61.50
2018-11-02T10:48:39.376Z,59.10
2018-11-02T10:49:39.404Z,58.50
2018-11-02T10:50:39.331Z,63.30
2018-11-02T10:51:39.311Z,74.30
2018-11-02T10:52:39.282Z,60.80
2018-11-02T10:53:39.346Z,56.10
2018-11-02T10:54:39.414Z,56.30
2018-11-02T10:55:39.305Z,64.00
2018-11-02T10:56:39.329Z,50.70
2018-11-02T10:57:39.257Z,56.90
2018-11-02T10:58:39.244Z,55.60
2018-11-02T10:59:39.247Z,53.50
2018-11-02T11:00:39.336Z,59.50
2018-11-02T11:01:39.239Z,67.70
2018-11-02T11:02:39.280Z,53.60
2018-11-02T11:03:39.222Z,49.10
2018-11-02T11:04:39.206Z,47.50
2018-11-02T11:05:39.199Z,45.60
2018-11-02T11:06:39.209Z,59.30
2018-11-02T11:07:39.206Z,54.60
2018-11-02T11:08:39.182Z,50.50
2018-11-02T11:09:39.181Z,40.70
2018-11-02T11:10:39.171Z,47.50
2018-11-02T11:11:39.283Z,52.60
2018-11-02T11:12:39.549Z,46.80
2018-11-02T11:13:39.468Z,42.90
2018-11-02T11:14:39.193Z,43.50
2018-11-02T11:15:39.130Z,45.80
2018-11-02T11:16:39.134Z,38.00
2018-11-02T11:17:39.168Z,30.70
2018-11-02T11:18:39.143Z,37.70
2018-11-02T11:19:39.122Z,43.60
2018-11-02T11:20:39.091Z,36.90
2018-11-02T11:21:39.089Z,42.10
2018-11-02T11:22:39.095Z,49.10
2018-11-02T11:23:39.085Z,47.00
2018-11-02T11:24:39.081Z,45.30
2018-11-02T11:25:39.066Z,32.20
2018-11-02T11:26:39.058Z,35.40
2018-11-02T11:27:39.061Z,44.20
2018-11-02T11:28:39.078Z,38.40
2018-11-02T11:29:39.020Z,41.70
2018-11-02T11:30:39.040Z,38.90
2018-11-02T11:31:39.031Z,31.60
2018-11-02T11:32:39.015Z,27.70
2018-11-02T11:33:39.011Z,29.00
2018-11-02T11:34:39.018Z,35.20
2018-11-02T11:35:39.012Z,30.10
2018-11-02T11:36:38.994Z,28.30
2018-11-02T11:37:39.000Z,33.30
2018-11-02T11:38:38.979Z,38.20
2018-11-02T11:39:38.984Z,33.80
2018-11-02T11:40:39.067Z,32.70
2018-11-02T11:41:38.948Z,27.60
2018-11-02T11:42:38.936Z,38.50
2018-11-02T11:43:38.958Z,28.30
2018-11-02T11:44:38.960Z,29.40
2018-11-02T11:45:38.940Z,25.70
2018-11-02T11:46:38.929Z,26.60
2018-11-02T11:47:38.908Z,28.90
2018-11-02T11:48:38.986Z,28.50
2018-11-02T11:49:38.912Z,28.80
2018-11-02T11:50:38.903Z,33.30
2018-11-02T11:51:38.901Z,33.40
2018-11-02T11:52:38.889Z,26.50
2018-11-02T11:53:38.893Z,26.20
2018-11-02T11:54:38.956Z,39.40
2018-11-02T11:55:38.874Z,33.80
2018-11-02T11:56:38.859Z,32.50
2018-11-02T11:57:38.848Z,37.60
2018-11-02T11:58:38.838Z,32.90
2018-11-02T11:59:38.852Z,33.90
2018-11-02T12:00:38.883Z,27.00
2018-11-02T12:01:38.836Z,32.60
2018-11-02T12:02:38.820Z,35.10
2018-11-02T12:03:38.796Z,31.00
2018-11-02T12:04:38.828Z,23.70
2018-11-02T12:05:38.846Z,24.60
2018-11-02T12:06:38.797Z,25.40
2018-11-02T12:07:38.830Z,26.70
2018-11-02T12:08:38.803Z,32.40
2018-11-02T12:09:38.778Z,26.50
2018-11-02T12:10:38.776Z,26.30
2018-11-02T12:11:38.786Z,23.20
2018-11-02T12:12:38.775Z,27.90
2018-11-02T12:13:38.769Z,23.10
2018-11-02T12:14:38.745Z,31.60
2018-11-02T12:15:38.754Z,24.20
2018-11-02T12:16:38.749Z,22.90
2018-11-02T12:17:38.724Z,29.20
2018-11-02T12:18:38.713Z,25.10
2018-11-02T12:19:38.759Z,23.50
2018-11-02T12:20:38.693Z,24.80
2018-11-02T12:21:38.817Z,23.80
2018-11-02T12:22:38.688Z,31.00
2018-11-02T12:23:38.679Z,30.10
2018-11-02T12:24:38.679Z,32.30
2018-11-02T12:25:38.680Z,34.30
2018-11-02T12:26:38.663Z,24.90
2018-11-02T12:27:38.657Z,22.70
2018-11-02T12:28:38.702Z,23.50
2018-11-02T12:29:38.654Z,23.90
2018-11-02T12:30:38.701Z,29.40
2018-11-02T12:31:38.636Z,22.20
2018-11-02T12:32:38.624Z,27.90
2018-11-02T12:33:38.652Z,25.70
2018-11-02T12:34:38.613Z,26.10
2018-11-02T12:35:38.621Z,32.30
2018-11-02T12:36:38.635Z,26.40
2018-11-02T12:37:38.599Z,30.70
2018-11-02T12:38:38.596Z,25.60
2018-11-02T12:39:38.602Z,22.90
2018-11-02T12:40:38.625Z,34.90
2018-11-02T12:41:38.566Z,31.20
2018-11-02T12:42:38.571Z,26.20
2018-11-02T12:43:38.783Z,27.10